Happy Valentine's Day! 

Flight Track Log - Related Links

Times and Time Zones

All times are in EDT time to prevent confusion due to time zone crossing. See the SWA311 flight status page for this flight to view local times or setup timezone preferences in your user account.


Time Position Orientation Groundspeed Altitude Reporting Facility
EDT Latitude Longitude Course Direction KTS MPH feet Rate Location/Type
Mon 12:04:43 AM 33.9422 -118.5206 262° West 203 234 2,800  Level Los Angeles Center
Mon 12:05:45 AM 33.8653 -118.5408 192° South 264 304 5,100 2,732 Climbing Los Angeles Center
Mon 12:06:46 AM 33.7819 -118.5303 174° South 280 322 8,400 2,732 Climbing Los Angeles Center
Mon 12:07:48 AM 33.7067 -118.5142 170° South 289 333 10,700 2,177 Climbing Los Angeles Center
Mon 12:08:50 AM 33.6653 -118.4178 117° Southeast 333 383 12,900 2,133 Climbing Los Angeles Center
Mon 12:10:03 AM 33.6428 -118.3083 104° East 346 398 15,500 2,533 Climbing Los Angeles Center
Mon 12:11:05 AM 33.6450 -118.1408 89° East 365 420 18,600 2,468 Climbing Los Angeles Center
Mon 12:12:07 AM 33.6444 -118.0147 90° East 376 433 20,600 1,854 Climbing Los Angeles Center
Mon 12:13:08 AM 33.6442 -117.8839 90° East 388 447 22,400 1,707 Climbing Los Angeles Center
Mon 12:14:10 AM 33.6442 -117.7517 90° East 396 456 24,100 1,512 Climbing Los Angeles Center
Mon 12:15:11 AM 33.6442 -117.6133 90° East 409 471 25,500 1,317 Climbing Los Angeles Center
Mon 12:16:13 AM 33.6439 -117.4719 90° East 420 483 26,800 1,171 Climbing Los Angeles Center
Mon 12:17:14 AM 33.6417 -117.3258 91° East 434 499 27,900 1,220 Climbing Los Angeles Center
Mon 12:18:16 AM 33.6403 -117.1439 90° East 454 522 29,300 1,171 Climbing Los Angeles Center
Mon 12:19:17 AM 33.6383 -116.9892 91° East 462 532 30,300 1,075 Climbing Los Angeles Center
Mon 12:20:30 AM 33.6367 -116.8303 91° East 476 548 31,700 1,422 Climbing Los Angeles Center
Mon 12:21:32 AM 33.6619 -116.6303 81° East 481 554 33,500 1,452 Climbing Los Angeles Center
Mon 12:22:34 AM 33.6828 -116.4722 81° East 480 552 34,700 1,220 Climbing Los Angeles Center
Mon 12:23:35 AM 33.7036 -116.3144 81° East 478 550 36,000 1,122 Climbing Los Angeles Center
Mon 12:24:37 AM 33.7222 -116.1575 82° East 475 547 37,000 488 Climbing Los Angeles Center
Mon 12:25:38 AM 33.7428 -116.0011 81° East 473 544 37,000  Level Los Angeles Center
Mon 12:26:40 AM 33.7633 -115.8447 81° East 473 544 37,000  Level Los Angeles Center
Mon 12:27:41 AM 33.7828 -115.6858 82° East 479 551 37,000  Level Los Angeles Center
Mon 12:28:42 AM 33.8025 -115.5269 81° East 481 554 37,000  Level Los Angeles Center
Mon 12:29:44 AM 33.8203 -115.3672 82° East 482 555 37,000  Level Los Angeles Center
Mon 12:30:45 AM 33.8447 -115.1772 81° East 480 552 37,000  Level Los Angeles Center
Mon 12:31:47 AM 33.8628 -115.0203 82° East 475 547 37,000  Level Los Angeles Center
Mon 12:32:48 AM 33.8831 -114.8625 81° East 478 550 37,000  Level Los Angeles Center
Mon 12:33:50 AM 33.9019 -114.7050 82° East 478 550 37,000  Level Los Angeles Center
Mon 12:34:51 AM 33.9194 -114.5497 82° East 471 542 37,000  Level Los Angeles Center
Mon 12:35:52 AM 33.9386 -114.3917 82° East 475 547 37,000  Level Los Angeles Center
Mon 12:36:54 AM 33.9561 -114.2339 82° East 477 549 37,000  Level Los Angeles Center
Mon 12:37:55 AM 33.9742 -114.0769 82° East 474 545 37,000  Level Los Angeles Center
Mon 12:38:57 AM 33.9908 -113.9203 83° East 476 548 37,000  Level Los Angeles Center
Mon 12:39:46 AM 34.0069 -113.7781 82° East 475 547 37,000  Level Albuquerque Center
Mon 12:40:47 AM 34.0236 -113.6214 83° East 475 547 37,000  Level Albuquerque Center
Mon 12:41:48 AM 34.0400 -113.4639 83° East 474 545 37,000  Level Albuquerque Center
Mon 12:42:50 AM 34.0567 -113.3067 83° East 475 547 37,000  Level Albuquerque Center
Mon 12:43:50 AM 34.0731 -113.1497 83° East 472 543 37,000  Level Albuquerque Center
Mon 12:44:49 AM 34.0892 -112.9919 83° East 474 545 37,000  Level Albuquerque Center
Mon 12:45:50 AM 34.1058 -112.8344 83° East 474 545 37,000  Level Albuquerque Center
Mon 12:46:52 AM 34.1214 -112.6775 83° East 472 543 37,000  Level Albuquerque Center
Mon 12:47:50 AM 34.1369 -112.5194 83° East 474 545 37,000  Level Albuquerque Center
Mon 12:48:52 AM 34.1531 -112.3614 83° East 475 547 37,000  Level Albuquerque Center
Mon 12:49:53 AM 34.1686 -112.2033 83° East 474 545 37,000  Level Albuquerque Center
Mon 12:50:54 AM 34.1836 -112.0436 83° East 476 548 37,000  Level Albuquerque Center
Mon 12:51:54 AM 34.2008 -111.8614 83° East 473 544 37,000  Level Albuquerque Center
Mon 12:52:55 AM 34.2153 -111.7028 84° East 476 548 37,000  Level Albuquerque Center
Mon 12:53:55 AM 34.2286 -111.5611 83° East 477 549 37,000  Level Albuquerque Center
Mon 12:54:56 AM 34.2425 -111.4019 84° East 476 548 37,000 50 Level Albuquerque Center
Mon 12:55:55 AM 34.2569 -111.2411 84° East 478 550 37,100  Climbing Albuquerque Center
Mon 12:56:56 AM 34.2714 -111.0828 84° East 477 549 37,000 -49 Descending Albuquerque Center
Mon 12:57:57 AM 34.2853 -110.9231 84° East 477 549 37,000  Level Albuquerque Center
Mon 12:58:56 AM 34.2986 -110.7625 84° East 479 551 37,000  Level Albuquerque Center
Mon 12:59:58 AM 34.3128 -110.6036 84° East 477 549 37,000  Level Albuquerque Center
Mon 01:00:58 AM 34.3292 -110.4442 83° East 478 550 37,000  Level Albuquerque Center
Mon 01:01:56 AM 34.3694 -110.2578 75° East 477 549 37,000  Level Albuquerque Center
Mon 01:02:59 AM 34.3997 -110.1083 76° East 476 548 37,000  Level Albuquerque Center
Mon 01:04:00 AM 34.4322 -109.9597 75° East 477 549 37,000  Level Albuquerque Center
Mon 01:05:00 AM 34.4625 -109.8106 76° East 477 549 37,000  Level Albuquerque Center
Mon 01:05:58 AM 34.4983 -109.6378 76° East 477 549 37,000  Level Albuquerque Center
Mon 01:07:01 AM 34.5289 -109.4903 76° East 474 545 37,000  Level Albuquerque Center
Mon 01:08:01 AM 34.5586 -109.3439 76° East 470 541 37,000  Level Albuquerque Center
Mon 01:09:01 AM 34.5944 -109.1728 76° East 470 541 37,000  Level Albuquerque Center
Mon 01:10:00 AM 34.6236 -109.0261 76° East 469 540 37,000  Level Albuquerque Center
Mon 01:11:02 AM 34.6528 -108.8806 76° East 466 536 37,000 -488 Level Albuquerque Center
Mon 01:12:03 AM 34.6867 -108.7092 76° East 467 537 36,000 -958 Descending Albuquerque Center
Mon 01:13:01 AM 34.7150 -108.5631 77° East 467 537 35,100 -1,190 Descending Albuquerque Center
Mon 01:14:04 AM 34.7433 -108.4183 77° East 463 533 33,600 -2,390 Descending Albuquerque Center
Mon 01:15:04 AM 34.7778 -108.2475 76° East 465 535 30,200 -3,000 Descending Albuquerque Center
Mon 01:16:02 AM 34.8033 -108.1139 77° East 460 529 27,700 -2,380 Descending Albuquerque Center
Mon 01:17:05 AM 34.8300 -107.9703 77° East 445 512 25,400 -2,177 Descending Albuquerque Center
Mon 01:18:06 AM 34.8558 -107.8331 77° East 425 489 23,200 -2,132 Descending Albuquerque Center
Mon 01:19:06 AM 34.8778 -107.7019 78° East 404 465 21,100 -2,286 Descending Albuquerque Center
Mon 01:19:09 AM 34.8822 -107.6836 74° East 398 458 20,800 -3,000 Descending Albuquerque Center
Mon 01:19:16 AM 34.8847 -107.6728 74° East 397 457 20,600 -1,889 Descending Albuquerque Center
Mon 01:20:03 AM 34.9031 -107.5781 77° East 386 444 19,100 -2,100 Descending Albuquerque Center
Mon 01:20:16 AM 34.9094 -107.5400 78° East 374 430 18,500 -1,688 Descending Albuquerque Center
Mon 01:21:07 AM 34.9258 -107.4572 76° East 368 423 17,300 -1,862 Descending Albuquerque Center
Mon 01:21:14 AM 34.9322 -107.4208 78° East 360 414 16,700 -2,276 Descending Albuquerque Center
Mon 01:22:05 AM 34.9483 -107.3394 76° East 359 413 15,100 -2,164 Descending Albuquerque Center
Mon 01:22:15 AM 34.9531 -107.3044 81° East 353 406 14,500 -1,935 Descending Albuquerque Center
Mon 01:23:07 AM 34.9694 -107.2247 76° East 349 402 13,100 -1,905 Descending Albuquerque Center
Mon 01:23:18 AM 34.9742 -107.1903 80° East 345 397 12,500 -2,066 Descending Albuquerque Center
Mon 01:24:08 AM 34.9894 -107.1131 76° East 340 391 11,000 -2,136 Descending Albuquerque Center
Mon 01:24:17 AM 34.9956 -107.0789 78° East 336 387 10,400 -1,034 Descending Albuquerque Center
Mon 01:25:06 AM 35.0089 -107.0069 77° East 325 374 10,000 -787 Descending Albuquerque Center
Mon 01:25:18 AM 35.0125 -106.9786 81° East 304 350 9,600 -1,355 Descending Albuquerque Center
Mon 01:26:08 AM 35.0264 -106.9119 76° East 297 342 8,600 -1,180 Descending Albuquerque Center
Mon 01:26:19 AM 35.0322 -106.8831 76° East 283 326 8,400 -590 Descending Albuquerque Center
Mon 01:27:09 AM 35.0442 -106.8103 79° East 269 310 8,000 -407 Descending Albuquerque Center
Mon 01:27:18 AM 35.0436 -106.7997 94° East 245 282 8,000 -828 Level Albuquerque Center
Mon 01:28:07 AM 35.0450 -106.7411 88° East 210 242 7,200 -984 Descending Albuquerque Center
Mon 01:28:19 AM 35.0436 -106.7269 97° East 176 203 7,000 -750 Descending Albuquerque Center
Mon 01:29:11 AM 35.0444 -106.6836 89° East 178 205 6,400 -814 Descending Albuquerque Center
Mon 01:29:18 AM 35.0447 -106.6722 88° East 151 174 6,200 -750 Descending Albuquerque Center
Mon 01:30:07 AM 35.0442 -106.6381 91° East 139 160 5,700 -429 Descending Albuquerque Center
Mon 01:31:10 AM 35.0439 -106.5942 90° East 137 158 5,400 -286 Descending Albuquerque Center

Login

Don't have an account? Register now (free) for customized features, flight alerts, and more!